createdAt,value
2023-01-29T00:02:11.676Z,17.42
2023-01-29T00:04:38.553Z,15.45
2023-01-29T00:07:05.428Z,15.85
2023-01-29T00:09:32.459Z,23.13
2023-01-29T00:11:59.444Z,17.75
2023-01-29T00:14:27.708Z,16.70
2023-01-29T00:16:54.916Z,17.27
2023-01-29T00:19:21.769Z,18.38
2023-01-29T00:21:48.633Z,15.63
2023-01-29T00:24:15.516Z,20.70
2023-01-29T00:26:43.396Z,17.63
2023-01-29T00:29:10.462Z,17.02
2023-01-29T00:31:37.476Z,19.33
2023-01-29T00:34:04.419Z,16.23
2023-01-29T00:36:31.412Z,17.67
2023-01-29T00:38:59.835Z,19.90
2023-01-29T00:41:50.664Z,17.80
2023-01-29T00:44:37.196Z,17.40
2023-01-29T00:47:04.782Z,18.23
2023-01-29T00:49:31.583Z,18.23
2023-01-29T00:52:17.446Z,18.20
2023-01-29T00:54:44.221Z,20.23
2023-01-29T00:57:11.277Z,19.05
2023-01-29T00:59:38.265Z,18.40
2023-01-29T01:02:23.726Z,20.55
2023-01-29T01:04:50.665Z,19.05
2023-01-29T01:07:17.535Z,20.13
2023-01-29T01:10:02.793Z,17.33
2023-01-29T01:12:29.873Z,17.57
2023-01-29T01:14:56.813Z,19.35
2023-01-29T01:17:24.190Z,18.95
2023-01-29T01:19:51.035Z,20.20
2023-01-29T01:22:17.931Z,19.42
2023-01-29T01:24:44.906Z,18.60
2023-01-29T01:27:12.583Z,18.55
2023-01-29T01:29:39.543Z,17.85
2023-01-29T01:32:06.806Z,16.00
2023-01-29T01:34:33.906Z,19.92
2023-01-29T01:37:00.827Z,16.07
2023-01-29T01:39:27.917Z,18.20
2023-01-29T01:41:55.300Z,17.88
2023-01-29T01:45:13.368Z,16.23
2023-01-29T01:48:13.216Z,17.23
2023-01-29T01:51:06.695Z,16.40
2023-01-29T01:53:38.719Z,16.92
2023-01-29T01:56:09.724Z,17.02
2023-01-29T01:58:44.341Z,19.88
2023-01-29T02:01:12.916Z,18.38
2023-01-29T02:04:08.810Z,17.50
2023-01-29T02:06:58.827Z,18.15
2023-01-29T02:09:38.016Z,16.17
2023-01-29T02:12:12.558Z,15.60
2023-01-29T02:14:41.710Z,16.83
2023-01-29T02:17:14.822Z,16.63
2023-01-29T02:20:06.034Z,16.17
2023-01-29T02:22:38.692Z,18.20
2023-01-29T02:25:27.448Z,16.90
2023-01-29T02:28:22.192Z,16.75
2023-01-29T02:31:00.295Z,17.90
2023-01-29T02:33:33.165Z,17.63
2023-01-29T02:36:33.021Z,15.48
2023-01-29T02:39:24.811Z,17.90
2023-01-29T02:42:02.594Z,16.98
2023-01-29T02:44:40.842Z,17.10
2023-01-29T02:47:23.180Z,16.73
2023-01-29T02:50:26.587Z,17.73
2023-01-29T02:53:14.037Z,16.58
2023-01-29T02:56:00.365Z,13.82
2023-01-29T02:59:08.390Z,20.10
2023-01-29T03:01:51.866Z,19.65
2023-01-29T03:04:27.927Z,20.48
2023-01-29T03:07:03.269Z,19.63
2023-01-29T03:09:50.632Z,17.73
2023-01-29T03:12:34.164Z,19.20
2023-01-29T03:15:11.787Z,15.68
2023-01-29T03:17:57.563Z,19.92
2023-01-29T03:20:32.289Z,17.80
2023-01-29T03:23:06.702Z,22.17
2023-01-29T03:25:54.998Z,22.00
2023-01-29T03:28:41.026Z,19.05
2023-01-29T03:31:31.016Z,18.15
2023-01-29T03:34:24.734Z,18.90
2023-01-29T03:36:57.937Z,20.92
2023-01-29T03:39:29.905Z,20.40
2023-01-29T03:42:12.221Z,20.40
2023-01-29T03:44:47.526Z,18.48
2023-01-29T03:47:34.702Z,21.25
2023-01-29T03:50:12.976Z,20.02
2023-01-29T03:52:49.351Z,21.67
2023-01-29T03:55:27.998Z,20.95
2023-01-29T03:57:55.024Z,19.35
2023-01-29T04:00:35.190Z,20.85
2023-01-29T04:03:13.920Z,20.45
2023-01-29T04:05:48.001Z,21.33
2023-01-29T04:08:23.373Z,25.50
2023-01-29T04:10:53.164Z,21.50
2023-01-29T04:13:20.550Z,21.60
2023-01-29T04:15:59.730Z,16.67
2023-01-29T04:18:26.985Z,19.53
2023-01-29T04:20:54.167Z,19.33
2023-01-29T04:23:26.996Z,19.02
2023-01-29T04:26:24.587Z,21.27
2023-01-29T04:29:24.583Z,20.10
2023-01-29T04:32:07.820Z,19.57
2023-01-29T04:35:12.457Z,18.77
2023-01-29T04:38:10.652Z,18.33
2023-01-29T04:40:48.866Z,21.88
2023-01-29T04:43:36.554Z,19.40
2023-01-29T04:46:32.073Z,21.87
2023-01-29T04:49:12.575Z,19.50
2023-01-29T04:51:50.376Z,20.38
2023-01-29T04:54:36.494Z,20.92
2023-01-29T04:57:10.583Z,19.23
2023-01-29T04:59:51.172Z,21.23
2023-01-29T05:02:21.371Z,21.17
2023-01-29T05:04:50.271Z,20.38
2023-01-29T05:07:19.026Z,21.02
2023-01-29T05:09:47.215Z,21.23
2023-01-29T05:12:17.690Z,23.97
2023-01-29T05:14:46.090Z,19.30
2023-01-29T05:17:18.847Z,18.42
2023-01-29T05:19:46.887Z,19.80
2023-01-29T05:22:17.334Z,23.75
2023-01-29T05:24:44.940Z,21.97
2023-01-29T05:27:44.662Z,22.40
2023-01-29T05:30:11.967Z,22.02
2023-01-29T05:32:39.920Z,20.73
2023-01-29T05:35:07.222Z,23.40
2023-01-29T05:37:34.002Z,24.07
2023-01-29T05:40:00.781Z,24.65
2023-01-29T05:42:27.629Z,20.70
2023-01-29T05:44:54.469Z,21.48
2023-01-29T05:47:21.974Z,20.90
2023-01-29T05:49:48.842Z,21.13
2023-01-29T05:52:15.688Z,24.27
2023-01-29T05:54:42.501Z,21.80
2023-01-29T05:57:09.385Z,22.48
2023-01-29T05:59:36.184Z,20.25
2023-01-29T06:02:03.132Z,21.57
2023-01-29T06:04:30.018Z,18.30
2023-01-29T06:06:56.998Z,22.73
2023-01-29T06:09:23.877Z,20.42
2023-01-29T06:11:50.824Z,21.85
2023-01-29T06:14:17.686Z,21.97
2023-01-29T06:16:44.515Z,19.60
2023-01-29T06:19:11.299Z,22.95
2023-01-29T06:21:38.120Z,23.38
2023-01-29T06:24:05.252Z,22.60
2023-01-29T06:26:32.195Z,22.30
2023-01-29T06:28:59.083Z,20.35
2023-01-29T06:31:37.759Z,23.42
2023-01-29T06:34:07.806Z,18.63
2023-01-29T06:36:34.753Z,20.83
2023-01-29T06:39:01.595Z,21.63
2023-01-29T06:41:28.847Z,19.23
2023-01-29T06:43:55.792Z,23.77
2023-01-29T06:46:22.658Z,17.02
2023-01-29T06:48:49.541Z,21.00
2023-01-29T06:51:16.369Z,20.27
2023-01-29T06:53:45.791Z,19.60
2023-01-29T06:56:13.131Z,21.38
2023-01-29T06:58:40.056Z,21.40
2023-01-29T07:01:09.358Z,21.08
2023-01-29T07:03:36.810Z,20.73
2023-01-29T07:06:04.816Z,21.88
2023-01-29T07:08:31.798Z,20.02
2023-01-29T07:11:00.599Z,17.77
2023-01-29T07:13:27.619Z,18.52
2023-01-29T07:15:55.265Z,17.90
2023-01-29T07:18:22.308Z,17.63
2023-01-29T07:20:49.268Z,19.38
2023-01-29T07:23:16.758Z,20.55
2023-01-29T07:25:43.979Z,16.83
2023-01-29T07:28:10.851Z,19.10
2023-01-29T07:30:37.790Z,20.90
2023-01-29T07:33:07.599Z,19.42
2023-01-29T07:35:43.450Z,16.88
2023-01-29T07:38:11.298Z,23.10
2023-01-29T07:40:38.389Z,21.53
2023-01-29T07:43:07.382Z,18.85
2023-01-29T07:45:36.872Z,17.13
2023-01-29T07:48:05.285Z,17.42
2023-01-29T07:50:34.386Z,20.35
2023-01-29T07:53:02.187Z,22.60
2023-01-29T07:55:29.179Z,21.15
2023-01-29T07:57:57.051Z,21.38
2023-01-29T08:00:24.111Z,23.33
2023-01-29T08:02:51.066Z,18.70
2023-01-29T08:05:17.962Z,17.80
2023-01-29T08:07:49.257Z,20.85
2023-01-29T08:10:22.165Z,19.13
2023-01-29T08:13:00.507Z,18.40
2023-01-29T08:15:28.185Z,19.02
2023-01-29T08:17:57.956Z,18.77
2023-01-29T08:20:25.870Z,16.63
2023-01-29T08:23:04.675Z,16.83
2023-01-29T08:25:32.466Z,17.33
2023-01-29T08:28:02.427Z,17.15
2023-01-29T08:30:32.185Z,19.63
2023-01-29T08:32:59.028Z,16.98
2023-01-29T08:35:26.427Z,18.80
2023-01-29T08:37:54.654Z,18.38
2023-01-29T08:40:21.947Z,19.00
2023-01-29T08:42:48.865Z,18.07
2023-01-29T08:45:15.906Z,17.75
2023-01-29T08:47:49.994Z,20.25
2023-01-29T08:50:18.418Z,19.65
2023-01-29T08:52:46.340Z,19.52
2023-01-29T08:55:13.916Z,19.87
2023-01-29T08:57:41.209Z,19.20
2023-01-29T09:00:12.181Z,16.48
2023-01-29T09:02:39.059Z,18.85
2023-01-29T09:05:06.492Z,20.83
2023-01-29T09:07:33.693Z,19.73
2023-01-29T09:10:00.619Z,18.90
2023-01-29T09:12:27.418Z,16.92
2023-01-29T09:14:54.432Z,18.55
2023-01-29T09:17:21.611Z,19.10
2023-01-29T09:19:48.409Z,18.67
2023-01-29T09:22:15.437Z,18.98
2023-01-29T09:24:42.355Z,19.20
2023-01-29T09:27:10.215Z,17.35
2023-01-29T09:29:37.327Z,17.42
2023-01-29T09:32:05.986Z,16.17
2023-01-29T09:34:34.452Z,15.95
2023-01-29T09:37:01.485Z,17.52
2023-01-29T09:39:28.470Z,15.63
2023-01-29T09:42:16.287Z,16.63
2023-01-29T09:44:52.094Z,15.67
2023-01-29T09:47:20.451Z,17.25
2023-01-29T09:49:50.801Z,20.67
2023-01-29T09:52:26.464Z,17.35
2023-01-29T09:54:56.386Z,19.15
2023-01-29T09:57:29.493Z,16.83
2023-01-29T09:59:56.483Z,19.50
2023-01-29T10:02:36.287Z,18.10
2023-01-29T10:05:35.319Z,20.00
2023-01-29T10:08:18.007Z,19.65
2023-01-29T10:10:49.757Z,17.33
2023-01-29T10:13:28.709Z,17.50
2023-01-29T10:16:23.564Z,16.55
2023-01-29T10:19:16.746Z,17.33
2023-01-29T10:21:49.529Z,18.20
2023-01-29T10:24:35.056Z,19.00
2023-01-29T10:27:12.475Z,17.60
2023-01-29T10:29:42.144Z,16.35
2023-01-29T10:32:16.070Z,17.80
2023-01-29T10:34:49.537Z,16.70
2023-01-29T10:37:19.738Z,17.23
2023-01-29T10:39:46.798Z,19.15
2023-01-29T10:42:38.594Z,20.38
2023-01-29T10:45:30.492Z,18.33
2023-01-29T10:47:57.403Z,18.60
2023-01-29T10:50:52.623Z,19.77
2023-01-29T10:53:31.566Z,19.33
2023-01-29T10:56:05.822Z,18.55
2023-01-29T10:59:16.447Z,22.58
2023-01-29T11:01:43.413Z,17.20
2023-01-29T11:04:13.229Z,18.57
2023-01-29T11:06:40.323Z,20.15
2023-01-29T11:12:15.040Z,19.65
2023-01-29T11:14:55.776Z,23.38
2023-01-29T11:17:25.969Z,19.70
2023-01-29T11:19:57.073Z,23.02
2023-01-29T11:22:26.611Z,21.05
2023-01-29T11:25:20.108Z,20.95
2023-01-29T11:27:58.554Z,18.58
2023-01-29T11:30:40.048Z,23.60
2023-01-29T11:33:08.381Z,25.38
2023-01-29T11:35:36.804Z,26.55
2023-01-29T11:38:10.057Z,23.73
2023-01-29T11:40:40.056Z,21.08
2023-01-29T11:43:23.869Z,25.73
2023-01-29T11:45:54.153Z,25.27
2023-01-29T11:48:23.379Z,24.55
2023-01-29T11:50:58.370Z,23.45
2023-01-29T11:53:42.295Z,20.65
2023-01-29T11:56:49.015Z,19.50
2023-01-29T11:59:48.719Z,22.85
2023-01-29T12:02:26.915Z,24.05
2023-01-29T12:05:00.414Z,24.02
2023-01-29T12:07:28.884Z,20.50
2023-01-29T12:10:01.175Z,21.87
2023-01-29T12:12:35.468Z,21.98
2023-01-29T12:15:18.131Z,24.20
2023-01-29T12:18:04.882Z,23.50
2023-01-29T12:21:07.230Z,22.95
2023-01-29T12:23:58.379Z,26.33
2023-01-29T12:27:15.067Z,19.50
2023-01-29T12:29:57.175Z,22.95
2023-01-29T12:32:48.576Z,21.33
2023-01-29T12:35:46.153Z,22.60
2023-01-29T12:38:22.051Z,25.43
2023-01-29T12:41:23.947Z,23.02
2023-01-29T12:44:01.688Z,25.13
2023-01-29T12:46:34.277Z,24.70
2023-01-29T12:49:07.714Z,24.85
2023-01-29T12:51:45.215Z,23.93
2023-01-29T12:54:22.440Z,27.10
2023-01-29T12:56:53.750Z,24.50
2023-01-29T12:59:43.415Z,22.90
2023-01-29T13:02:26.115Z,26.77
2023-01-29T13:05:19.179Z,23.60
2023-01-29T13:07:50.440Z,24.15
2023-01-29T13:10:24.092Z,26.35
2023-01-29T13:13:14.048Z,22.80
2023-01-29T13:15:44.385Z,24.90
2023-01-29T13:18:33.593Z,24.63
2023-01-29T13:21:01.856Z,24.00
2023-01-29T13:23:35.820Z,26.00
2023-01-29T13:26:03.908Z,22.60
2023-01-29T13:28:31.121Z,25.42
2023-01-29T13:31:13.552Z,23.97
2023-01-29T13:33:43.689Z,25.88
2023-01-29T13:36:30.107Z,23.38
2023-01-29T13:39:09.209Z,23.40
2023-01-29T13:41:40.265Z,24.52
2023-01-29T13:44:21.712Z,25.10
2023-01-29T13:46:56.664Z,24.95
2023-01-29T13:49:44.233Z,24.27
2023-01-29T13:52:31.859Z,24.15
2023-01-29T13:55:06.223Z,24.15
2023-01-29T13:57:43.919Z,23.33
2023-01-29T14:00:24.572Z,21.15
2023-01-29T14:03:00.504Z,24.35
2023-01-29T14:05:30.325Z,23.65
2023-01-29T14:08:06.873Z,22.23
2023-01-29T14:10:35.200Z,24.10
2023-01-29T14:13:04.935Z,23.52
2023-01-29T14:15:34.874Z,22.65
2023-01-29T14:18:21.355Z,21.90
2023-01-29T14:20:48.267Z,21.73
2023-01-29T14:23:34.140Z,21.33
2023-01-29T14:26:04.494Z,19.88
2023-01-29T14:28:34.339Z,22.02
2023-01-29T14:31:01.971Z,20.90
2023-01-29T14:33:36.401Z,22.10
2023-01-29T14:36:23.975Z,21.33
2023-01-29T14:38:53.857Z,20.80
2023-01-29T14:41:31.619Z,22.15
2023-01-29T14:44:35.785Z,22.15
2023-01-29T14:47:02.759Z,18.33
2023-01-29T14:49:52.585Z,21.57
2023-01-29T14:52:23.552Z,21.55
2023-01-29T14:54:51.656Z,22.50
2023-01-29T14:57:19.547Z,21.98
2023-01-29T15:00:00.897Z,22.60
2023-01-29T15:02:59.830Z,22.60
2023-01-29T15:05:37.672Z,26.20
2023-01-29T15:08:36.032Z,21.23
2023-01-29T15:11:32.584Z,20.60
2023-01-29T15:14:24.261Z,23.52
2023-01-29T15:17:06.398Z,19.77
2023-01-29T15:19:40.387Z,21.30
2023-01-29T15:22:18.784Z,19.70
2023-01-29T15:24:47.529Z,24.98
2023-01-29T15:27:20.124Z,22.33
2023-01-29T15:30:08.357Z,22.03
2023-01-29T15:32:40.595Z,18.83
2023-01-29T15:35:20.430Z,20.30
2023-01-29T15:38:05.533Z,22.02
2023-01-29T15:40:34.499Z,24.50
2023-01-29T15:43:01.520Z,20.90
2023-01-29T15:45:31.408Z,24.08
2023-01-29T15:48:08.709Z,23.30
2023-01-29T15:50:39.660Z,21.08
2023-01-29T15:53:13.778Z,23.25
2023-01-29T15:55:41.202Z,18.87
2023-01-29T15:58:16.471Z,21.95
2023-01-29T16:00:51.680Z,23.23
2023-01-29T16:03:24.871Z,20.75
2023-01-29T16:05:53.122Z,20.35
2023-01-29T16:08:22.192Z,23.03
2023-01-29T16:10:55.450Z,21.00
2023-01-29T16:13:29.726Z,23.70
2023-01-29T16:16:06.037Z,20.48
2023-01-29T16:18:41.085Z,24.92
2023-01-29T16:21:23.047Z,23.13
2023-01-29T16:23:53.034Z,19.45
2023-01-29T16:26:35.970Z,18.73
2023-01-29T16:29:08.510Z,19.02
2023-01-29T16:31:37.473Z,21.23
2023-01-29T16:34:18.421Z,23.03
2023-01-29T16:36:50.066Z,17.83
2023-01-29T16:39:23.407Z,21.13
2023-01-29T16:42:09.891Z,21.85
2023-01-29T16:44:39.379Z,21.25
2023-01-29T16:47:14.955Z,22.70
2023-01-29T16:49:50.079Z,23.38
2023-01-29T16:52:29.639Z,20.98
2023-01-29T16:55:23.309Z,21.42
2023-01-29T16:57:55.808Z,19.88
2023-01-29T17:00:29.071Z,23.80
2023-01-29T17:03:07.082Z,20.77
2023-01-29T17:05:37.252Z,23.00
2023-01-29T17:08:05.986Z,21.00
2023-01-29T17:10:33.921Z,24.17
2023-01-29T17:13:07.467Z,25.93
2023-01-29T17:15:43.336Z,25.08
2023-01-29T17:18:18.532Z,22.58
2023-01-29T17:20:45.686Z,23.52
2023-01-29T17:23:12.612Z,22.63
2023-01-29T17:25:39.926Z,25.83
2023-01-29T17:28:07.365Z,26.15
2023-01-29T17:30:37.432Z,25.10
2023-01-29T17:33:18.731Z,28.48
2023-01-29T17:35:46.018Z,23.50
2023-01-29T17:38:25.050Z,25.47
2023-01-29T17:41:00.485Z,23.10
2023-01-29T17:43:27.558Z,24.30
2023-01-29T17:45:54.680Z,29.85
2023-01-29T17:48:26.937Z,25.40
2023-01-29T17:50:57.173Z,22.63
2023-01-29T17:53:43.296Z,26.73
2023-01-29T17:56:21.867Z,27.13
2023-01-29T17:58:48.802Z,29.73
2023-01-29T18:01:18.784Z,24.45
2023-01-29T18:03:45.763Z,25.37
2023-01-29T18:06:35.949Z,26.27
2023-01-29T18:09:06.337Z,26.05
2023-01-29T18:11:34.662Z,26.35
2023-01-29T18:14:10.880Z,27.90
2023-01-29T18:16:43.739Z,24.70
2023-01-29T18:19:24.057Z,24.88
2023-01-29T18:21:51.346Z,28.40
2023-01-29T18:24:18.950Z,29.40
2023-01-29T18:26:45.886Z,28.05
2023-01-29T18:29:13.271Z,27.50
2023-01-29T18:31:45.737Z,29.40
2023-01-29T18:34:12.934Z,24.40
2023-01-29T18:36:47.198Z,26.80
2023-01-29T18:39:15.653Z,26.77
2023-01-29T18:41:42.784Z,25.90
2023-01-29T18:44:11.322Z,31.08
2023-01-29T18:46:38.167Z,23.15
2023-01-29T18:49:05.501Z,25.83
2023-01-29T18:51:32.550Z,28.77
2023-01-29T18:54:02.185Z,25.37
2023-01-29T18:56:29.133Z,26.42
2023-01-29T18:58:56.468Z,26.90
2023-01-29T19:01:23.990Z,27.45
2023-01-29T19:03:51.109Z,29.52
2023-01-29T19:06:18.002Z,27.27
2023-01-29T19:08:45.125Z,24.58
2023-01-29T19:11:12.780Z,27.70
2023-01-29T19:13:40.626Z,26.10
2023-01-29T19:16:12.260Z,23.60
2023-01-29T19:18:40.024Z,26.07
2023-01-29T19:21:12.877Z,24.63
2023-01-29T19:23:55.049Z,27.17
2023-01-29T19:26:22.088Z,26.58
2023-01-29T19:28:49.023Z,24.98
2023-01-29T19:31:15.905Z,27.03
2023-01-29T19:33:42.658Z,25.00
2023-01-29T19:36:10.023Z,26.27
2023-01-29T19:38:38.814Z,24.73
2023-01-29T19:41:06.187Z,26.60
2023-01-29T19:43:33.245Z,26.30
2023-01-29T19:46:01.587Z,22.75
2023-01-29T19:48:28.808Z,27.50
2023-01-29T19:50:58.511Z,27.67
2023-01-29T19:53:27.249Z,28.05
2023-01-29T19:56:06.538Z,28.77
2023-01-29T19:58:34.352Z,24.15
2023-01-29T20:01:24.993Z,23.98
2023-01-29T20:03:52.161Z,26.80
2023-01-29T20:06:23.493Z,28.30
2023-01-29T20:08:50.496Z,24.07
2023-01-29T20:11:20.007Z,29.33
2023-01-29T20:13:48.762Z,25.35
2023-01-29T20:16:17.522Z,25.73
2023-01-29T20:18:44.890Z,26.08
2023-01-29T20:21:14.564Z,25.80
2023-01-29T20:23:41.655Z,26.08
2023-01-29T20:26:12.001Z,26.48
2023-01-29T20:28:39.465Z,24.80
2023-01-29T20:31:07.814Z,27.45
2023-01-29T20:33:38.770Z,23.67
2023-01-29T20:36:08.490Z,28.52
2023-01-29T20:38:35.498Z,27.45
2023-01-29T20:41:17.077Z,28.20
2023-01-29T20:43:45.274Z,27.77
2023-01-29T20:46:13.468Z,26.10
2023-01-29T20:48:42.199Z,24.98
2023-01-29T20:51:15.763Z,28.40
2023-01-29T20:53:45.989Z,28.25
2023-01-29T20:56:13.938Z,27.10
2023-01-29T20:58:43.738Z,27.17
2023-01-29T21:01:12.275Z,27.27
2023-01-29T21:03:39.916Z,37.63
2023-01-29T21:06:08.804Z,26.00
2023-01-29T21:08:36.790Z,29.33
2023-01-29T21:11:05.207Z,29.13
2023-01-29T21:13:32.104Z,25.45
2023-01-29T21:15:59.537Z,26.65
2023-01-29T21:18:26.576Z,28.38
2023-01-29T21:20:56.688Z,26.25
2023-01-29T21:23:26.715Z,29.13
2023-01-29T21:26:00.762Z,28.30
2023-01-29T21:28:31.015Z,28.30
2023-01-29T21:31:29.735Z,28.15
2023-01-29T21:34:04.885Z,26.23
2023-01-29T21:36:55.393Z,29.77
2023-01-29T21:39:34.699Z,25.38
2023-01-29T21:42:32.770Z,25.20
2023-01-29T21:44:59.696Z,25.50
2023-01-29T21:47:26.532Z,28.40
2023-01-29T21:49:55.108Z,27.27
2023-01-29T21:52:24.891Z,32.17
2023-01-29T21:55:23.951Z,31.10
2023-01-29T21:57:51.204Z,23.58
2023-01-29T22:00:30.992Z,25.85
2023-01-29T22:03:09.481Z,24.83
2023-01-29T22:05:36.551Z,25.08
2023-01-29T22:08:06.664Z,26.75
2023-01-29T22:13:39.189Z,26.77
2023-01-29T22:16:09.948Z,25.30
2023-01-29T22:18:40.065Z,28.95
2023-01-29T22:21:07.039Z,27.85
2023-01-29T22:23:33.793Z,26.95
2023-01-29T22:26:09.073Z,24.60
2023-01-29T22:28:36.087Z,29.00
2023-01-29T22:31:04.485Z,29.38
2023-01-29T22:33:31.956Z,27.27
2023-01-29T22:35:58.848Z,30.60
2023-01-29T22:38:26.094Z,31.10
2023-01-29T22:40:54.577Z,26.37
2023-01-29T22:43:22.216Z,27.50
2023-01-29T22:45:49.149Z,25.45
2023-01-29T22:48:16.079Z,26.10
2023-01-29T22:50:43.227Z,25.20
2023-01-29T22:53:10.162Z,27.37
2023-01-29T22:55:37.126Z,27.77
2023-01-29T22:58:04.021Z,31.33
2023-01-29T23:00:30.866Z,30.98
2023-01-29T23:02:57.755Z,26.95
2023-01-29T23:05:24.648Z,26.20
2023-01-29T23:07:51.478Z,24.85
2023-01-29T23:10:18.730Z,30.25
2023-01-29T23:12:45.677Z,26.52
2023-01-29T23:15:12.550Z,28.77
2023-01-29T23:17:39.921Z,24.13
2023-01-29T23:20:07.482Z,25.98
2023-01-29T23:22:34.631Z,29.77
2023-01-29T23:25:02.906Z,27.63
2023-01-29T23:27:29.866Z,25.73
2023-01-29T23:29:56.754Z,25.77
2023-01-29T23:32:23.655Z,24.92
2023-01-29T23:34:50.469Z,28.95
2023-01-29T23:37:17.342Z,26.50
2023-01-29T23:39:44.291Z,25.48
2023-01-29T23:42:11.208Z,28.33
2023-01-29T23:44:38.101Z,23.38
2023-01-29T23:47:04.979Z,25.65
2023-01-29T23:49:32.087Z,24.08
2023-01-29T23:51:58.935Z,26.25
2023-01-29T23:54:25.809Z,27.50
2023-01-29T23:56:52.789Z,30.13
2023-01-29T23:59:19.741Z,23.27
